Time;durP1;ratioP1;P1;durP2;ratioP2;P2;SDS_P1;SDS_P2;PMS_P1;PMS_P2;Temp;Humidity;BMP_temperature;BMP_pressure;BME280_temperature;BME280_humidity;BME280_pressure;Samples;Min_cycle;Max_cycle;Signal;HPM_P1;HPM_P2
2022/01/05 00:00:10;;;;;;;583.83;277.90;;;4.80;99.90;;;;;;5117930;28;20070;-63
2022/01/05 00:02:37;;;;;;;582.67;276.10;;;4.80;99.90;;;;;;5118049;28;20666;-62
2022/01/05 00:05:03;;;;;;;543.67;251.95;;;4.80;99.90;;;;;;5118127;28;20047;-63
2022/01/05 00:07:30;;;;;;;532.50;240.75;;;4.80;99.90;;;;;;5117498;28;20047;-63
2022/01/05 00:09:56;;;;;;;517.13;233.93;;;4.80;99.90;;;;;;5117914;28;20074;-63
2022/01/05 00:12:22;;;;;;;499.85;228.05;;;4.80;99.90;;;;;;5117630;28;20032;-63
2022/01/05 00:14:48;;;;;;;515.20;232.63;;;4.70;99.90;;;;;;5117642;28;20132;-63
2022/01/05 00:17:13;;;;;;;518.65;227.43;;;4.70;99.90;;;;;;5118661;27;20035;-63
2022/01/05 00:19:39;;;;;;;492.58;224.10;;;4.70;99.90;;;;;;5138204;27;20058;-63
2022/01/05 00:22:06;;;;;;;520.05;245.52;;;4.70;99.90;;;;;;5137986;27;20046;-63
2022/01/05 00:24:32;;;;;;;485.65;224.45;;;4.70;99.90;;;;;;5138086;27;20395;-63
2022/01/05 00:26:58;;;;;;;485.20;224.98;;;4.70;99.90;;;;;;5138188;27;20038;-63
2022/01/05 00:29:24;;;;;;;471.90;217.77;;;4.60;99.90;;;;;;5119581;27;20031;-63
2022/01/05 00:31:50;;;;;;;485.30;221.70;;;4.60;99.90;;;;;;5138195;27;20484;-63
2022/01/05 00:34:16;;;;;;;490.67;218.07;;;4.60;99.90;;;;;;5137885;27;20051;-63
2022/01/05 00:36:42;;;;;;;492.95;214.38;;;4.60;99.90;;;;;;5137781;27;20085;-63
2022/01/05 00:39:08;;;;;;;543.65;239.18;;;4.60;99.90;;;;;;5137892;27;20038;-63
2022/01/05 00:41:34;;;;;;;580.50;253.10;;;4.60;99.90;;;;;;5137743;27;20089;-63
2022/01/05 00:44:00;;;;;;;463.77;198.55;;;4.60;99.90;;;;;;5137564;27;20035;-63
2022/01/05 00:46:26;;;;;;;431.95;184.88;;;4.60;99.90;;;;;;5137732;27;20035;-62
2022/01/05 00:48:52;;;;;;;444.20;197.15;;;4.60;99.90;;;;;;5137346;27;20492;-63
2022/01/05 00:51:18;;;;;;;492.80;214.60;;;4.60;99.90;;;;;;5137330;27;20074;-63
2022/01/05 00:53:44;;;;;;;456.80;197.02;;;4.60;99.90;;;;;;5137523;27;20031;-63
2022/01/05 00:56:10;;;;;;;469.98;207.55;;;4.50;99.90;;;;;;5137411;27;20606;-63
2022/01/05 00:58:36;;;;;;;427.55;193.20;;;4.50;99.90;;;;;;5136612;27;20062;-63
2022/01/05 01:01:02;;;;;;;429.05;182.90;;;4.60;99.90;;;;;;5137303;27;20031;-63
2022/01/05 01:03:28;;;;;;;408.45;178.65;;;4.60;99.90;;;;;;5137286;27;20500;-63
2022/01/05 01:05:56;;;;;;;426.73;182.10;;;4.60;99.90;;;;;;5137150;27;20039;-63
2022/01/05 01:08:22;;;;;;;409.13;177.90;;;4.60;99.90;;;;;;5137148;27;20031;-63
2022/01/05 01:10:49;;;;;;;415.77;179.82;;;4.70;99.90;;;;;;5137340;27;20031;-63
2022/01/05 01:13:17;;;;;;;403.25;178.50;;;4.70;99.90;;;;;;5125430;27;20042;-63
2022/01/05 01:15:47;;;;;;;388.38;168.45;;;4.60;99.90;;;;;;5116497;28;20466;-63
2022/01/05 01:18:14;;;;;;;;;;;4.70;99.90;;;;;;5116631;28;20063;-63
2022/01/05 01:20:40;;;;;;;366.88;164.63;;;4.60;99.90;;;;;;5116280;28;19908;-63
2022/01/05 01:23:06;;;;;;;342.92;152.20;;;4.50;99.90;;;;;;5116336;28;20039;-63
2022/01/05 01:25:33;;;;;;;416.50;177.02;;;4.50;99.90;;;;;;5116129;28;20104;-63
2022/01/05 01:27:59;;;;;;;376.38;162.38;;;4.50;99.90;;;;;;5116230;28;20493;-63
2022/01/05 01:30:25;;;;;;;364.65;158.75;;;4.50;99.90;;;;;;5116444;28;20028;-63
2022/01/05 01:32:51;;;;;;;345.85;151.77;;;4.60;99.90;;;;;;5116049;28;20558;-62
2022/01/05 01:35:17;;;;;;;343.45;151.75;;;4.60;99.90;;;;;;5116188;28;20038;-62
2022/01/05 01:37:43;;;;;;;338.77;147.70;;;4.50;99.90;;;;;;5116153;28;20388;-63
2022/01/05 01:40:10;;;;;;;337.20;146.13;;;4.50;99.90;;;;;;5116089;28;20035;-62
2022/01/05 01:42:36;;;;;;;326.25;143.48;;;4.50;99.90;;;;;;5115984;28;20036;-63
2022/01/05 01:45:03;;;;;;;325.40;143.73;;;4.60;99.90;;;;;;5115939;28;20023;-62
2022/01/05 01:47:29;;;;;;;314.92;138.18;;;4.70;99.90;;;;;;5115794;28;20036;-62
2022/01/05 01:49:55;;;;;;;309.85;136.13;;;4.70;99.90;;;;;;5115958;28;20034;-63
2022/01/05 01:52:21;;;;;;;307.48;137.50;;;4.70;99.90;;;;;;5115872;28;20036;-62
2022/01/05 01:54:48;;;;;;;299.05;138.57;;;4.70;99.90;;;;;;5115561;28;20125;-62
2022/01/05 01:57:14;;;;;;;296.80;136.18;;;4.60;99.90;;;;;;5115652;28;20035;-62
2022/01/05 01:59:40;;;;;;;294.27;130.93;;;4.60;99.90;;;;;;5115644;28;20047;-63
2022/01/05 02:02:08;;;;;;;310.20;137.60;;;4.60;99.90;;;;;;5115668;28;20040;-63
2022/01/05 02:04:35;;;;;;;307.10;137.32;;;4.60;99.90;;;;;;5115496;28;20066;-63
2022/01/05 02:07:05;;;;;;;293.40;131.38;;;4.60;99.90;;;;;;5115703;28;20044;-63
2022/01/05 02:09:31;;;;;;;300.52;131.52;;;4.60;99.90;;;;;;5114897;28;20036;-63
2022/01/05 02:11:57;;;;;;;299.77;132.30;;;4.60;99.90;;;;;;5115145;28;20040;-63
2022/01/05 02:14:23;;;;;;;285.08;130.13;;;4.60;99.90;;;;;;5115387;28;20042;-63
2022/01/05 02:16:49;;;;;;;286.27;130.55;;;4.60;99.90;;;;;;5115352;28;20040;-63
2022/01/05 02:19:15;;;;;;;293.40;132.00;;;4.70;99.90;;;;;;5133461;27;20035;-63
2022/01/05 02:21:42;;;;;;;284.48;127.55;;;4.70;99.90;;;;;;5135823;27;20073;-63
2022/01/05 02:24:10;;;;;;;269.80;122.85;;;4.70;99.90;;;;;;5135774;27;20031;-63
2022/01/05 02:26:37;;;;;;;273.77;121.85;;;4.70;99.90;;;;;;5135907;27;20484;-63
2022/01/05 02:29:05;;;;;;;260.25;118.55;;;4.70;99.90;;;;;;5135652;27;20393;-63
2022/01/05 02:31:31;;;;;;;258.40;118.32;;;4.70;99.90;;;;;;5135644;27;20035;-63
2022/01/05 02:33:57;;;;;;;241.15;109.55;;;4.70;99.90;;;;;;5135612;27;20118;-63
2022/01/05 02:36:22;;;;;;;241.38;111.90;;;4.70;99.90;;;;;;5135602;27;20067;-62
2022/01/05 02:38:51;;;;;;;238.70;109.85;;;4.80;99.90;;;;;;5135522;27;20035;-63
2022/01/05 02:41:18;;;;;;;235.57;104.45;;;4.80;99.90;;;;;;5135393;27;20503;-63
2022/01/05 02:43:46;;;;;;;232.95;106.25;;;4.80;99.90;;;;;;5135459;27;20035;-63
2022/01/05 02:46:14;;;;;;;236.65;107.50;;;4.70;99.90;;;;;;5135460;27;20054;-63
2022/01/05 02:48:41;;;;;;;226.38;104.35;;;4.70;99.90;;;;;;5135690;27;20031;-63
2022/01/05 02:51:07;;;;;;;231.60;106.13;;;4.60;99.90;;;;;;5135350;27;20028;-63
2022/01/05 02:53:34;;;;;;;258.63;119.97;;;4.50;99.90;;;;;;5135440;27;20046;-63
2022/01/05 02:56:00;;;;;;;252.60;115.32;;;4.40;99.90;;;;;;5135449;27;20042;-63
2022/01/05 02:58:26;;;;;;;232.57;106.80;;;4.20;99.90;;;;;;5135301;27;20039;-63
2022/01/05 03:00:52;;;;;;;223.55;106.90;;;4.20;99.90;;;;;;5135403;27;20031;-63
2022/01/05 03:03:18;;;;;;;225.70;102.50;;;4.20;99.90;;;;;;5135533;28;20112;-63
2022/01/05 03:05:44;;;;;;;220.85;102.93;;;4.20;99.90;;;;;;5135067;28;20449;-63
2022/01/05 03:08:11;;;;;;;212.38;97.97;;;4.20;99.90;;;;;;5118598;28;20516;-63
2022/01/05 03:10:37;;;;;;;214.02;102.28;;;4.20;99.90;;;;;;5114752;28;20032;-63
2022/01/05 03:13:03;;;;;;;222.40;105.38;;;4.30;99.90;;;;;;5104600;28;20445;-63
2022/01/05 03:15:29;;;;;;;203.88;96.35;;;4.10;99.90;;;;;;5094465;28;20051;-63
2022/01/05 03:17:55;;;;;;;195.57;94.20;;;4.00;99.90;;;;;;5094212;28;20388;-63
2022/01/05 03:20:22;;;;;;;210.52;99.53;;;4.10;99.90;;;;;;5094064;28;20094;-63
2022/01/05 03:22:49;;;;;;;191.63;93.63;;;4.20;99.90;;;;;;5097875;28;20521;-63
2022/01/05 03:25:19;;;;;;;192.48;94.00;;;4.10;99.90;;;;;;5098051;28;20050;-63
2022/01/05 03:27:48;;;;;;;170.95;85.25;;;4.10;99.90;;;;;;5098198;28;20035;-63
2022/01/05 03:30:19;;;;;;;185.15;89.70;;;4.10;99.90;;;;;;5098188;28;20063;-63
2022/01/05 03:35:27;;;;;;;188.93;87.47;;;4.10;99.90;;;;;;5098113;28;20221;-64
2022/01/05 03:37:53;;;;;;;175.60;82.20;;;4.10;99.90;;;;;;5098047;28;20028;-64
2022/01/05 03:40:19;;;;;;;171.85;81.50;;;4.10;99.90;;;;;;5097969;28;20127;-64
2022/01/05 03:42:45;;;;;;;163.45;76.93;;;4.00;99.90;;;;;;5097929;28;20115;-64
2022/01/05 03:45:12;;;;;;;160.13;76.13;;;4.10;99.90;;;;;;5097767;28;20076;-64
2022/01/05 03:47:38;;;;;;;170.95;78.28;;;4.00;99.90;;;;;;5097823;28;20115;-64
2022/01/05 03:50:05;;;;;;;177.45;77.53;;;4.10;99.90;;;;;;5097770;28;20115;-64
2022/01/05 03:52:31;;;;;;;171.57;84.50;;;4.10;99.90;;;;;;5097720;28;20051;-64
2022/01/05 03:54:57;;;;;;;179.27;83.85;;;4.20;99.90;;;;;;5097758;28;20032;-64
2022/01/05 03:57:24;;;;;;;181.60;85.22;;;4.30;99.90;;;;;;5097738;28;20386;-64
2022/01/05 03:59:54;;;;;;;184.32;84.03;;;4.30;99.90;;;;;;5097777;28;20040;-64
2022/01/05 04:02:21;;;;;;;171.02;82.18;;;4.30;99.90;;;;;;5097582;28;20106;-64
2022/01/05 04:04:47;;;;;;;189.80;87.28;;;4.30;99.90;;;;;;5097755;28;20035;-64
2022/01/05 04:07:15;;;;;;;181.43;82.68;;;4.30;99.90;;;;;;5105963;28;20047;-64
2022/01/05 04:09:42;;;;;;;181.75;83.45;;;4.30;99.90;;;;;;5117831;28;20062;-64
2022/01/05 04:12:09;;;;;;;173.05;80.55;;;4.30;99.90;;;;;;5115538;28;20032;-64
2022/01/05 04:14:35;;;;;;;190.77;89.30;;;4.30;99.90;;;;;;5097270;28;20390;-64
2022/01/05 04:17:01;;;;;;;184.05;84.70;;;4.30;99.90;;;;;;5097749;28;20043;-64
2022/01/05 04:19:27;;;;;;;189.75;88.93;;;4.30;99.90;;;;;;5097140;28;20063;-64
2022/01/05 04:21:53;;;;;;;180.73;84.95;;;4.40;99.90;;;;;;5097159;28;20044;-64
2022/01/05 04:24:19;;;;;;;181.32;83.82;;;4.30;99.90;;;;;;5096992;28;20119;-64
2022/01/05 04:26:45;;;;;;;201.07;88.88;;;4.30;99.90;;;;;;5097100;28;20425;-64
2022/01/05 04:29:11;;;;;;;207.68;92.70;;;4.40;99.90;;;;;;5097085;28;20063;-64
2022/01/05 04:31:37;;;;;;;204.60;90.93;;;4.30;99.90;;;;;;5100754;28;20054;-63
2022/01/05 04:34:03;;;;;;;184.65;84.35;;;4.40;99.90;;;;;;5116499;28;20048;-63
2022/01/05 04:36:29;;;;;;;194.98;89.20;;;4.40;99.90;;;;;;5117342;28;20043;-64
2022/01/05 04:38:55;;;;;;;210.70;92.78;;;4.40;99.90;;;;;;5117259;28;20123;-64
2022/01/05 04:41:21;;;;;;;237.52;99.50;;;4.50;99.90;;;;;;5117178;28;20032;-64
2022/01/05 04:43:47;;;;;;;255.05;105.43;;;4.40;99.90;;;;;;5116929;28;20484;-63
2022/01/05 04:46:13;;;;;;;235.63;100.32;;;4.40;99.90;;;;;;5117137;28;20035;-64
2022/01/05 04:48:39;;;;;;;239.05;104.00;;;4.50;99.90;;;;;;5116968;28;20161;-63
2022/01/05 04:51:05;;;;;;;228.38;100.28;;;4.40;99.90;;;;;;5117005;28;20560;-64
2022/01/05 04:53:31;;;;;;;208.05;87.72;;;4.30;99.90;;;;;;5116851;28;20538;-64
2022/01/05 04:55:57;;;;;;;220.02;90.32;;;4.20;99.90;;;;;;5117041;28;20032;-64
2022/01/05 04:58:23;;;;;;;202.35;91.25;;;4.20;99.90;;;;;;5116838;28;20539;-64
2022/01/05 05:00:49;;;;;;;146.55;68.05;;;4.10;99.90;;;;;;5116659;28;20044;-66
2022/01/05 05:03:15;;;;;;;159.48;70.90;;;4.00;99.90;;;;;;5116561;28;20040;-63
2022/01/05 05:05:41;;;;;;;145.60;64.18;;;4.00;99.90;;;;;;5116808;28;20040;-63
2022/01/05 05:08:07;;;;;;;131.30;63.15;;;4.00;99.90;;;;;;5132785;27;20043;-63
2022/01/05 05:10:33;;;;;;;170.10;80.47;;;3.80;99.90;;;;;;5137420;27;20119;-64
2022/01/05 05:13:05;;;;;;;151.07;71.93;;;3.90;99.90;;;;;;5127627;27;20635;-63
2022/01/05 05:15:31;;;;;;;152.85;73.05;;;3.80;99.90;;;;;;5116486;28;20558;-64
2022/01/05 05:17:57;;;;;;;163.23;72.72;;;3.70;99.90;;;;;;5116425;28;20023;-63
2022/01/05 05:20:23;;;;;;;169.50;78.35;;;3.60;99.90;;;;;;5116531;28;20102;-63
2022/01/05 05:22:49;;;;;;;198.75;90.88;;;3.60;99.90;;;;;;5116780;28;20043;-63
2022/01/05 05:25:15;;;;;;;240.77;101.80;;;3.50;99.90;;;;;;5116303;28;20118;-63
2022/01/05 05:27:41;;;;;;;241.98;100.88;;;3.50;99.90;;;;;;5116524;28;20569;-63
2022/01/05 05:30:07;;;;;;;237.13;96.15;;;3.50;99.90;;;;;;5116345;28;20107;-63
2022/01/05 05:32:33;;;;;;;283.17;109.40;;;3.50;99.90;;;;;;5115898;28;20036;-63
2022/01/05 05:34:59;;;;;;;254.63;102.07;;;3.40;99.90;;;;;;5115997;28;20082;-63
2022/01/05 05:37:25;;;;;;;252.13;103.82;;;3.50;99.90;;;;;;5116087;28;20078;-63
2022/01/05 05:39:52;;;;;;;249.45;100.15;;;3.50;99.90;;;;;;5116051;28;20039;-63
2022/01/05 05:42:18;;;;;;;263.45;101.22;;;3.50;99.90;;;;;;5115911;28;20035;-63
2022/01/05 05:44:44;;;;;;;262.30;105.32;;;3.60;99.90;;;;;;5115773;28;20035;-63
2022/01/05 05:47:10;;;;;;;233.73;95.88;;;3.60;99.90;;;;;;5115989;28;20035;-64
2022/01/05 05:49:36;;;;;;;252.82;102.72;;;3.70;99.90;;;;;;5115935;28;20461;-64
2022/01/05 05:52:02;;;;;;;237.32;101.32;;;3.70;99.90;;;;;;5115963;28;20031;-64
2022/01/05 05:54:28;;;;;;;235.00;102.30;;;3.80;99.90;;;;;;5115707;28;20031;-64
2022/01/05 05:56:53;;;;;;;194.38;87.72;;;3.80;99.90;;;;;;5115810;28;20046;-64
2022/01/05 05:59:19;;;;;;;208.98;97.75;;;3.90;99.90;;;;;;5115863;28;20043;-63
2022/01/05 06:01:45;;;;;;;240.60;100.07;;;3.90;99.90;;;;;;5115497;28;20039;-64
2022/01/05 06:04:11;;;;;;;231.35;101.50;;;4.00;99.90;;;;;;5115584;28;20042;-64
2022/01/05 06:06:37;;;;;;;222.85;98.90;;;4.00;99.90;;;;;;5115588;28;20031;-63
2022/01/05 06:09:03;;;;;;;209.63;93.70;;;4.00;99.90;;;;;;5115426;28;20440;-64
2022/01/05 06:11:29;;;;;;;203.10;91.35;;;4.10;99.90;;;;;;5115289;28;20039;-64
2022/01/05 06:13:55;;;;;;;223.32;105.00;;;4.10;99.90;;;;;;5115350;28;20047;-64
2022/01/05 06:16:22;;;;;;;246.77;108.25;;;4.10;99.90;;;;;;5115588;28;20572;-64
2022/01/05 06:18:48;;;;;;;241.40;106.88;;;4.20;99.90;;;;;;5109145;27;20464;-64
2022/01/05 06:21:14;;;;;;;246.27;107.00;;;4.20;99.90;;;;;;5097605;28;20036;-64
2022/01/05 06:23:40;;;;;;;269.23;116.53;;;4.30;99.90;;;;;;5105145;28;20040;-64
2022/01/05 06:26:06;;;;;;;248.52;106.07;;;4.30;99.90;;;;;;5111454;28;20035;-64
2022/01/05 06:28:32;;;;;;;213.80;92.05;;;4.40;99.90;;;;;;5109337;28;20047;-65
2022/01/05 06:30:58;;;;;;;244.80;104.70;;;4.40;99.90;;;;;;5110400;28;20035;-64
2022/01/05 06:33:24;;;;;;;276.95;112.40;;;4.40;99.90;;;;;;5118214;27;20049;-65
2022/01/05 06:35:50;;;;;;;233.98;105.13;;;4.40;99.90;;;;;;5108174;28;20039;-64
2022/01/05 06:38:16;;;;;;;230.77;100.75;;;4.40;99.90;;;;;;5104161;28;20068;-65
2022/01/05 06:40:42;;;;;;;229.50;98.70;;;4.40;99.90;;;;;;5111093;28;20036;-65
2022/01/05 06:43:08;;;;;;;258.35;103.50;;;4.50;99.90;;;;;;5115599;28;20031;-65
2022/01/05 06:45:34;;;;;;;204.43;83.97;;;4.50;99.90;;;;;;5108207;28;20100;-64
2022/01/05 06:48:00;;;;;;;186.05;78.55;;;4.50;99.90;;;;;;5114672;28;20032;-64
2022/01/05 06:50:27;;;;;;;169.15;77.28;;;4.60;99.90;;;;;;5117585;27;20038;-65
2022/01/05 06:52:57;;;;;;;156.55;71.63;;;4.60;99.90;;;;;;5111044;28;20065;-64
2022/01/05 06:55:23;;;;;;;199.27;82.60;;;4.60;99.90;;;;;;5110045;28;20023;-65
2022/01/05 06:57:51;;;;;;;194.27;82.28;;;4.70;99.90;;;;;;5106633;28;20537;-64
2022/01/05 07:00:18;;;;;;;236.70;98.72;;;4.70;99.90;;;;;;5113894;28;20032;-64
2022/01/05 07:02:44;;;;;;;241.23;98.18;;;4.70;99.90;;;;;;5114102;28;20039;-64
2022/01/05 07:05:11;;;;;;;269.88;107.78;;;4.80;99.90;;;;;;5112177;28;20122;-63
2022/01/05 07:07:38;;;;;;;223.68;99.97;;;4.90;99.90;;;;;;5112250;28;20208;-63
2022/01/05 07:10:07;;;;;;;258.17;108.80;;;4.90;99.90;;;;;;5112839;28;20075;-62
2022/01/05 07:12:35;;;;;;;214.68;97.32;;;4.90;99.90;;;;;;5110801;28;20042;-64
2022/01/05 07:15:01;;;;;;;219.40;93.65;;;5.00;99.90;;;;;;5116235;28;20032;-64
2022/01/05 07:17:27;;;;;;;216.40;96.13;;;5.10;99.90;;;;;;5115393;28;20707;-64
2022/01/05 07:19:53;;;;;;;216.48;97.32;;;5.30;99.90;;;;;;5111492;28;20089;-64
2022/01/05 07:22:19;;;;;;;291.70;119.07;;;5.40;99.90;;;;;;5124389;28;20040;-64
2022/01/05 07:24:45;;;;;;;271.92;114.10;;;5.60;99.90;;;;;;5106083;28;20031;-64
2022/01/05 07:27:11;;;;;;;232.45;105.07;;;6.00;99.90;;;;;;5109112;28;20094;-64
2022/01/05 07:29:37;;;;;;;241.95;110.15;;;6.70;99.90;;;;;;5106221;28;20034;-65
2022/01/05 07:32:04;;;;;;;270.90;113.78;;;7.40;99.90;;;;;;5106945;28;20105;-64
2022/01/05 07:34:30;;;;;;;296.10;124.35;;;8.40;99.90;;;;;;5109816;28;20496;-66
2022/01/05 07:36:57;;;;;;;359.02;144.07;;;9.30;99.90;;;;;;5112664;28;20036;-66
2022/01/05 07:39:23;;;;;;;281.85;126.90;;;10.20;99.90;;;;;;5105570;28;20031;-67
2022/01/05 07:41:49;;;;;;;258.95;122.63;;;11.40;99.90;;;;;;5111984;28;20633;-67
2022/01/05 07:44:15;;;;;;;302.25;136.20;;;12.10;99.90;;;;;;5103733;28;20043;-67
2022/01/05 07:46:41;;;;;;;247.40;122.45;;;12.60;99.90;;;;;;5101084;28;20374;-67
2022/01/05 07:49:07;;;;;;;236.13;114.30;;;13.40;99.90;;;;;;5116792;28;20026;-68
2022/01/05 07:51:34;;;;;;;251.40;119.75;;;14.60;99.90;;;;;;5120481;28;20118;-68
2022/01/05 07:54:01;;;;;;;232.65;111.78;;;15.90;99.50;;;;;;5113565;28;20047;-68
2022/01/05 07:56:27;;;;;;;209.93;104.47;;;16.80;96.00;;;;;;5117054;28;20032;-68
2022/01/05 07:58:54;;;;;;;209.02;108.43;;;17.00;94.70;;;;;;5093558;28;20066;-68
2022/01/05 08:01:20;;;;;;;204.75;102.00;;;17.00;93.90;;;;;;5109136;28;20044;-68
2022/01/05 08:03:47;;;;;;;204.45;100.32;;;17.30;93.90;;;;;;5107324;28;20048;-68
2022/01/05 08:06:13;;;;;;;185.15;95.68;;;17.60;93.30;;;;;;5099775;28;20122;-68
2022/01/05 08:08:39;;;;;;;225.80;102.80;;;18.40;91.60;;;;;;5109582;28;20040;-68
2022/01/05 08:11:06;;;;;;;215.93;104.88;;;18.80;86.80;;;;;;5109450;28;20043;-68
2022/01/05 08:13:32;;;;;;;247.73;118.32;;;18.70;90.20;;;;;;5112896;28;20503;-66
2022/01/05 08:15:58;;;;;;;250.50;123.13;;;19.80;82.90;;;;;;5117277;28;20047;-66
2022/01/05 08:18:24;;;;;;;234.40;118.90;;;20.50;76.30;;;;;;5113509;28;20037;-66
2022/01/05 08:20:50;;;;;;;239.85;120.80;;;21.00;66.40;;;;;;5120587;27;20100;-66
2022/01/05 08:23:23;;;;;;;233.38;115.95;;;21.60;58.90;;;;;;5115840;27;20046;-66
2022/01/05 08:25:50;;;;;;;262.85;127.05;;;21.50;63.60;;;;;;5107185;27;20032;-66
2022/01/05 08:28:17;;;;;;;247.55;129.05;;;21.90;56.80;;;;;;5115178;28;20050;-65
2022/01/05 08:30:45;;;;;;;313.42;143.18;;;20.70;66.60;;;;;;5109925;28;20093;-65
2022/01/05 08:33:13;;;;;;;272.73;140.20;;;18.90;83.40;;;;;;5108116;27;20023;-65
2022/01/05 08:35:39;;;;;;;256.95;130.27;;;18.00;91.80;;;;;;5114900;27;20031;-65
2022/01/05 08:38:06;;;;;;;280.67;138.40;;;17.60;93.40;;;;;;5111241;27;20032;-65
2022/01/05 08:40:34;;;;;;;280.00;135.98;;;17.60;93.10;;;;;;5117193;27;20035;-64
2022/01/05 08:43:02;;;;;;;264.90;135.10;;;17.50;94.70;;;;;;5108307;28;20035;-65
2022/01/05 08:45:28;;;;;;;307.15;142.48;;;16.90;95.50;;;;;;5109187;27;20489;-63
2022/01/05 08:47:56;;;;;;;286.85;141.43;;;16.60;96.60;;;;;;5110950;28;20062;-65
2022/01/05 08:50:28;;;;;;;294.92;154.32;;;16.10;97.70;;;;;;5116213;28;20381;-63
2022/01/05 08:52:57;;;;;;;329.65;165.82;;;15.50;99.20;;;;;;5113271;28;20027;-64
2022/01/05 08:55:27;;;;;;;324.52;156.63;;;14.80;99.90;;;;;;5115984;27;20510;-64
2022/01/05 08:57:59;;;;;;;;;;;15.10;99.90;;;;;;5111457;27;20036;-64
2022/01/05 09:00:26;;;;;;;277.17;134.15;;;15.50;99.90;;;;;;5108623;28;19916;-64
2022/01/05 09:02:52;;;;;;;267.83;135.68;;;15.80;99.90;;;;;;5114003;27;20036;-64
2022/01/05 09:05:18;;;;;;;298.42;142.38;;;15.80;99.90;;;;;;5114671;27;20032;-65
2022/01/05 09:07:45;;;;;;;257.23;137.10;;;16.30;99.90;;;;;;5115347;27;20091;-64
2022/01/05 09:10:31;;;;;;;258.67;135.82;;;16.10;99.90;;;;;;5110105;28;20063;-65
2022/01/05 09:12:59;;;;;;;296.90;132.90;;;16.80;99.90;;;;;;5110439;27;20184;-66
2022/01/05 09:15:25;;;;;;;274.42;129.73;;;17.50;98.10;;;;;;5112556;27;20075;-66
2022/01/05 09:17:52;;;;;;;246.85;117.13;;;18.80;96.50;;;;;;5110547;28;20034;-66
2022/01/05 09:20:18;;;;;;;97.40;49.42;;;19.70;94.90;;;;;;5113657;28;20042;-66
2022/01/05 09:26:27;;;;;;;86.63;29.95;;;21.10;79.40;;;;;;5058794;28;20079;-66
2022/01/05 09:28:53;;;;;;;49.05;22.42;;;22.30;63.90;;;;;;5108254;28;20035;-65
2022/01/05 09:31:19;;;;;;;46.97;23.20;;;22.10;61.60;;;;;;5115069;28;20092;-64
2022/01/05 09:33:45;;;;;;;95.75;29.05;;;22.20;62.40;;;;;;5113752;27;20043;-65
2022/01/05 09:36:17;;;;;;;40.15;21.10;;;22.30;60.20;;;;;;5109408;28;20249;-65
2022/01/05 09:44:05;;;;;;;44.50;23.52;;;21.70;69.80;;;;;;5116255;27;20050;-64
2022/01/05 09:46:55;;;;;;;68.90;29.15;;;21.90;64.40;;;;;;5113700;28;20046;-65
2022/01/05 09:49:52;;;;;;;76.20;32.13;;;21.50;65.70;;;;;;5108942;28;20059;-65
2022/01/05 09:52:19;;;;;;;52.67;13.80;;;21.30;71.00;;;;;;5087417;28;20435;-65
2022/01/05 09:54:45;;;;;;;15.32;5.43;;;21.10;63.10;;;;;;5106288;28;20035;-65
2022/01/05 09:57:16;;;;;;;7.05;3.05;;;20.90;69.20;;;;;;5106693;27;20564;-64
2022/01/05 09:59:47;;;;;;;10.48;3.17;;;20.50;61.30;;;;;;5103770;27;20051;-64
2022/01/05 10:02:16;;;;;;;23.52;5.60;;;20.20;62.40;;;;;;5094070;28;20497;-63
2022/01/05 10:04:43;;;;;;;21.52;5.60;;;19.80;70.50;;;;;;5109165;28;20057;-64
2022/01/05 10:07:10;;;;;;;28.67;6.45;;;19.70;73.20;;;;;;5109947;27;20219;-64
2022/01/05 10:09:49;;;;;;;26.58;6.30;;;19.60;77.00;;;;;;5113070;27;20056;-64
2022/01/05 10:12:20;;;;;;;15.68;4.78;;;20.00;80.30;;;;;;5112838;28;20035;-65
2022/01/05 10:14:58;;;;;;;10.68;3.83;;;20.60;65.50;;;;;;5112068;28;20369;-65
2022/01/05 10:17:30;;;;;;;20.92;4.90;;;21.10;61.80;;;;;;5114613;28;20047;-66
2022/01/05 10:20:05;;;;;;;25.40;6.43;;;21.90;57.00;;;;;;5114825;28;20039;-65
2022/01/05 10:22:37;;;;;;;12.55;5.10;;;22.20;53.70;;;;;;5106355;28;20044;-66
2022/01/05 10:25:23;;;;;;;16.52;5.47;;;22.40;53.00;;;;;;5105878;28;20481;-65
2022/01/05 10:28:03;;;;;;;24.67;5.55;;;22.70;51.70;;;;;;5111724;28;20024;-65
2022/01/05 10:30:41;;;;;;;9.25;3.80;;;23.70;49.90;;;;;;5115169;28;20069;-66
2022/01/05 10:33:07;;;;;;;19.23;6.65;;;24.40;44.80;;;;;;5115534;28;20110;-65
2022/01/05 10:35:38;;;;;;;12.88;5.10;;;23.90;44.80;;;;;;5115707;28;20055;-65
2022/01/05 10:38:15;;;;;;;16.83;5.93;;;23.90;45.20;;;;;;5107178;28;20040;-64
2022/01/05 10:40:48;;;;;;;23.45;6.65;;;23.70;45.40;;;;;;5095879;28;20038;-64
2022/01/05 10:43:17;;;;;;;23.23;6.72;;;22.90;47.30;;;;;;5109635;28;20039;-63
2022/01/05 10:45:53;;;;;;;14.70;5.68;;;22.30;48.80;;;;;;5100805;28;20485;-63
2022/01/05 10:48:24;;;;;;;14.38;4.75;;;21.90;49.00;;;;;;5094577;28;20039;-63
2022/01/05 10:51:07;;;;;;;18.67;8.18;;;21.20;51.00;;;;;;5094851;28;20043;-63
2022/01/05 10:53:37;;;;;;;31.13;8.82;;;20.30;57.00;;;;;;5108895;28;20045;-63
2022/01/05 10:56:08;;;;;;;50.13;13.05;;;20.10;59.00;;;;;;5107058;28;20040;-62
2022/01/05 10:58:45;;;;;;;6.83;3.13;;;19.80;63.70;;;;;;5114493;28;20477;-62
2022/01/05 11:01:28;;;;;;;42.33;10.20;;;19.50;59.10;;;;;;5114535;28;20039;-62
2022/01/05 11:03:54;;;;;;;19.98;7.68;;;19.20;68.90;;;;;;5114616;28;20477;-62
2022/01/05 11:06:20;;;;;;;26.60;8.25;;;18.90;73.00;;;;;;5114563;28;20038;-63
2022/01/05 11:08:55;;;;;;;16.67;6.05;;;18.60;75.90;;;;;;5114046;28;20046;-62
2022/01/05 11:11:33;;;;;;;33.78;8.35;;;18.50;76.20;;;;;;5108686;28;20032;-62
2022/01/05 11:13:59;;;;;;;26.45;6.57;;;18.40;79.10;;;;;;5108106;28;20059;-62
2022/01/05 11:16:26;;;;;;;25.40;6.88;;;18.30;76.30;;;;;;5103911;28;20040;-62
2022/01/05 11:19:15;;;;;;;32.00;10.88;;;18.30;78.30;;;;;;5109242;28;20027;-62
2022/01/05 11:22:13;;;;;;;26.70;8.68;;;18.20;79.50;;;;;;5104265;28;20073;-62
2022/01/05 11:24:53;;;;;;;19.85;8.73;;;18.00;79.70;;;;;;5071612;28;20047;-62
2022/01/05 11:27:19;;;;;;;38.83;14.80;;;17.90;78.60;;;;;;5110594;28;20028;-62
2022/01/05 11:29:47;;;;;;;38.90;10.27;;;17.90;83.00;;;;;;5114255;28;20497;-62
2022/01/05 11:32:16;;;;;;;36.83;9.60;;;17.90;84.50;;;;;;5113212;28;20375;-62
2022/01/05 11:34:45;;;;;;;34.47;10.80;;;17.90;85.10;;;;;;5113399;28;20039;-62
2022/01/05 11:37:11;;;;;;;30.88;11.15;;;17.90;88.20;;;;;;5117967;28;20408;-62
2022/01/05 11:39:45;;;;;;;29.92;7.38;;;17.90;85.60;;;;;;5124804;28;20041;-62
2022/01/05 11:42:15;;;;;;;15.98;4.93;;;17.90;83.80;;;;;;5109227;27;20036;-62
2022/01/05 11:44:50;;;;;;;21.73;7.15;;;17.80;81.80;;;;;;5104135;27;20034;-62
2022/01/05 11:47:30;;;;;;;25.30;6.60;;;17.90;84.80;;;;;;5112571;28;20027;-62
2022/01/05 11:50:23;;;;;;;20.42;7.25;;;17.90;85.30;;;;;;5112652;27;20131;-62
2022/01/05 11:52:54;;;;;;;23.42;6.22;;;18.00;80.30;;;;;;5110430;28;20097;-62
2022/01/05 11:55:20;;;;;;;12.40;3.72;;;18.20;83.70;;;;;;5097205;28;20076;-62
2022/01/05 11:58:26;;;;;;;19.65;3.60;;;18.30;79.10;;;;;;5113602;27;20084;-63
2022/01/05 12:01:17;;;;;;;26.48;5.18;;;18.20;82.90;;;;;;5114931;27;20053;-63
2022/01/05 12:03:58;;;;;;;15.75;4.38;;;18.50;78.80;;;;;;5114806;27;20401;-64
2022/01/05 12:06:30;;;;;;;;;;;18.90;70.80;;;;;;5098896;28;20070;-64
2022/01/05 12:08:59;;;;;;;13.80;3.97;;;19.40;77.90;;;;;;5115995;28;19937;-64
2022/01/05 12:11:34;;;;;;;11.45;2.78;;;19.80;64.30;;;;;;5124307;27;20030;-64
2022/01/05 12:14:03;;;;;;;7.22;3.40;;;19.90;69.20;;;;;;5113244;28;20047;-65
2022/01/05 12:16:29;;;;;;;14.45;3.60;;;20.10;59.50;;;;;;5122544;27;20032;-65
2022/01/05 12:19:14;;;;;;;13.32;2.95;;;20.40;63.10;;;;;;5116051;28;20118;-65
2022/01/05 12:21:55;;;;;;;15.80;3.00;;;20.70;59.70;;;;;;5112930;27;20050;-65
2022/01/05 12:24:21;;;;;;;11.65;3.40;;;20.80;57.60;;;;;;5108557;28;20054;-67
2022/01/05 12:27:37;;;;;;;55.25;9.23;;;21.00;56.90;;;;;;5109062;28;20472;-67
2022/01/05 12:30:25;;;;;;;12.10;4.82;;;21.10;54.70;;;;;;5065378;28;20047;-68
2022/01/05 12:33:09;;;;;;;18.02;4.93;;;21.00;54.00;;;;;;5062840;28;20426;-68
2022/01/05 12:35:57;;;;;;;14.30;4.68;;;21.20;55.80;;;;;;5070418;28;20043;-68
2022/01/05 12:38:55;;;;;;;16.83;3.42;;;21.20;55.50;;;;;;5074744;28;20040;-68
2022/01/05 12:41:31;;;;;;;11.55;3.45;;;21.20;53.50;;;;;;5080982;28;20036;-68